sensor_id;sensor_type;location;lat;lon;timestamp;P1;durP1;ratioP1;P2;durP2;ratioP2
18196;SDS011;9224;52.422;13.024;2022-07-29T00:02:15;3.43;;;2.60;;
18196;SDS011;9224;52.422;13.024;2022-07-29T00:04:42;4.67;;;2.90;;
18196;SDS011;9224;52.422;13.024;2022-07-29T00:07:09;4.70;;;2.70;;
18196;SDS011;9224;52.422;13.024;2022-07-29T00:09:35;4.27;;;2.70;;
18196;SDS011;9224;52.422;13.024;2022-07-29T00:12:02;6.50;;;2.20;;
18196;SDS011;9224;52.422;13.024;2022-07-29T00:14:29;5.77;;;2.67;;
18196;SDS011;9224;52.422;13.024;2022-07-29T00:16:55;4.17;;;2.63;;
18196;SDS011;9224;52.422;13.024;2022-07-29T00:19:22;3.77;;;2.53;;
18196;SDS011;9224;52.422;13.024;2022-07-29T00:21:50;2.67;;;2.40;;
18196;SDS011;9224;52.422;13.024;2022-07-29T00:24:16;3.77;;;2.67;;
18196;SDS011;9224;52.422;13.024;2022-07-29T00:26:43;3.63;;;2.47;;
18196;SDS011;9224;52.422;13.024;2022-07-29T00:29:09;4.37;;;2.03;;
18196;SDS011;9224;52.422;13.024;2022-07-29T00:31:36;3.57;;;2.60;;
18196;SDS011;9224;52.422;13.024;2022-07-29T00:34:02;3.20;;;2.90;;
18196;SDS011;9224;52.422;13.024;2022-07-29T00:36:29;2.77;;;2.50;;
18196;SDS011;9224;52.422;13.024;2022-07-29T00:38:56;3.07;;;2.83;;
18196;SDS011;9224;52.422;13.024;2022-07-29T00:41:22;3.53;;;2.80;;
18196;SDS011;9224;52.422;13.024;2022-07-29T00:43:48;4.20;;;3.10;;
18196;SDS011;9224;52.422;13.024;2022-07-29T00:46:15;4.13;;;2.60;;
18196;SDS011;9224;52.422;13.024;2022-07-29T00:48:41;3.33;;;2.77;;
18196;SDS011;9224;52.422;13.024;2022-07-29T00:51:08;5.70;;;3.00;;
18196;SDS011;9224;52.422;13.024;2022-07-29T00:53:35;4.90;;;2.83;;
18196;SDS011;9224;52.422;13.024;2022-07-29T00:56:03;4.13;;;3.33;;
18196;SDS011;9224;52.422;13.024;2022-07-29T00:58:30;5.83;;;3.23;;
18196;SDS011;9224;52.422;13.024;2022-07-29T01:00:57;3.30;;;3.00;;
18196;SDS011;9224;52.422;13.024;2022-07-29T01:03:24;3.53;;;2.73;;
18196;SDS011;9224;52.422;13.024;2022-07-29T01:05:50;3.33;;;3.03;;
18196;SDS011;9224;52.422;13.024;2022-07-29T01:08:17;4.03;;;3.33;;
18196;SDS011;9224;52.422;13.024;2022-07-29T01:10:44;4.07;;;3.20;;
18196;SDS011;9224;52.422;13.024;2022-07-29T01:13:13;3.77;;;3.03;;
18196;SDS011;9224;52.422;13.024;2022-07-29T01:15:41;5.27;;;3.70;;
18196;SDS011;9224;52.422;13.024;2022-07-29T01:18:11;5.50;;;3.30;;
18196;SDS011;9224;52.422;13.024;2022-07-29T01:20:49;5.83;;;3.20;;
18196;SDS011;9224;52.422;13.024;2022-07-29T01:23:39;4.90;;;3.47;;
18196;SDS011;9224;52.422;13.024;2022-07-29T01:26:19;8.47;;;3.70;;
18196;SDS011;9224;52.422;13.024;2022-07-29T01:29:00;4.40;;;3.90;;
18196;SDS011;9224;52.422;13.024;2022-07-29T01:31:35;5.13;;;3.57;;
18196;SDS011;9224;52.422;13.024;2022-07-29T01:34:08;4.23;;;3.47;;
18196;SDS011;9224;52.422;13.024;2022-07-29T01:36:40;5.03;;;3.87;;
18196;SDS011;9224;52.422;13.024;2022-07-29T01:39:10;4.00;;;3.60;;
18196;SDS011;9224;52.422;13.024;2022-07-29T01:41:38;4.67;;;3.80;;
18196;SDS011;9224;52.422;13.024;2022-07-29T01:44:11;5.40;;;4.00;;
18196;SDS011;9224;52.422;13.024;2022-07-29T01:46:41;7.57;;;4.00;;
18196;SDS011;9224;52.422;13.024;2022-07-29T01:49:13;5.80;;;3.80;;
18196;SDS011;9224;52.422;13.024;2022-07-29T01:51:41;6.57;;;4.37;;
18196;SDS011;9224;52.422;13.024;2022-07-29T01:54:12;5.70;;;3.77;;
18196;SDS011;9224;52.422;13.024;2022-07-29T01:56:42;6.17;;;3.90;;
18196;SDS011;9224;52.422;13.024;2022-07-29T01:59:11;4.80;;;3.93;;
18196;SDS011;9224;52.422;13.024;2022-07-29T02:01:38;5.90;;;4.17;;
18196;SDS011;9224;52.422;13.024;2022-07-29T02:04:06;6.00;;;4.40;;
18196;SDS011;9224;52.422;13.024;2022-07-29T02:06:34;5.00;;;4.07;;
18196;SDS011;9224;52.422;13.024;2022-07-29T02:09:03;6.67;;;4.47;;
18196;SDS011;9224;52.422;13.024;2022-07-29T02:11:30;6.87;;;3.90;;
18196;SDS011;9224;52.422;13.024;2022-07-29T02:13:57;5.77;;;4.20;;
18196;SDS011;9224;52.422;13.024;2022-07-29T02:16:26;4.93;;;4.43;;
18196;SDS011;9224;52.422;13.024;2022-07-29T02:18:54;7.07;;;4.07;;
18196;SDS011;9224;52.422;13.024;2022-07-29T02:21:23;8.07;;;4.83;;
18196;SDS011;9224;52.422;13.024;2022-07-29T02:23:50;6.57;;;4.37;;
18196;SDS011;9224;52.422;13.024;2022-07-29T02:26:18;7.23;;;4.50;;
18196;SDS011;9224;52.422;13.024;2022-07-29T02:28:45;4.70;;;4.30;;
18196;SDS011;9224;52.422;13.024;2022-07-29T02:31:12;6.50;;;4.07;;
18196;SDS011;9224;52.422;13.024;2022-07-29T02:33:41;9.77;;;4.70;;
18196;SDS011;9224;52.422;13.024;2022-07-29T02:36:08;5.43;;;4.10;;
18196;SDS011;9224;52.422;13.024;2022-07-29T02:38:35;6.30;;;4.20;;
18196;SDS011;9224;52.422;13.024;2022-07-29T02:41:17;6.97;;;4.47;;
18196;SDS011;9224;52.422;13.024;2022-07-29T02:43:46;4.27;;;3.90;;
18196;SDS011;9224;52.422;13.024;2022-07-29T02:46:15;5.17;;;4.00;;
18196;SDS011;9224;52.422;13.024;2022-07-29T02:48:48;6.13;;;4.67;;
18196;SDS011;9224;52.422;13.024;2022-07-29T02:51:19;6.27;;;4.20;;
18196;SDS011;9224;52.422;13.024;2022-07-29T02:53:51;5.97;;;3.93;;
18196;SDS011;9224;52.422;13.024;2022-07-29T02:56:20;6.27;;;3.90;;
18196;SDS011;9224;52.422;13.024;2022-07-29T02:59:09;4.33;;;3.90;;
18196;SDS011;9224;52.422;13.024;2022-07-29T03:01:55;6.73;;;4.13;;
18196;SDS011;9224;52.422;13.024;2022-07-29T03:04:41;4.47;;;4.07;;
18196;SDS011;9224;52.422;13.024;2022-07-29T03:07:09;7.80;;;4.23;;
18196;SDS011;9224;52.422;13.024;2022-07-29T03:09:36;4.47;;;4.07;;
18196;SDS011;9224;52.422;13.024;2022-07-29T03:12:04;4.90;;;3.97;;
18196;SDS011;9224;52.422;13.024;2022-07-29T03:14:31;4.67;;;3.80;;
18196;SDS011;9224;52.422;13.024;2022-07-29T03:16:58;6.47;;;4.27;;
18196;SDS011;9224;52.422;13.024;2022-07-29T03:19:25;5.40;;;4.33;;
18196;SDS011;9224;52.422;13.024;2022-07-29T03:21:53;6.63;;;4.10;;
18196;SDS011;9224;52.422;13.024;2022-07-29T03:24:25;6.10;;;4.30;;
18196;SDS011;9224;52.422;13.024;2022-07-29T03:26:54;7.97;;;4.23;;
18196;SDS011;9224;52.422;13.024;2022-07-29T03:29:20;4.57;;;4.00;;
18196;SDS011;9224;52.422;13.024;2022-07-29T03:31:47;5.97;;;4.43;;
18196;SDS011;9224;52.422;13.024;2022-07-29T03:34:14;6.50;;;4.80;;
18196;SDS011;9224;52.422;13.024;2022-07-29T03:36:41;8.40;;;4.30;;
18196;SDS011;9224;52.422;13.024;2022-07-29T03:39:09;7.73;;;4.50;;
18196;SDS011;9224;52.422;13.024;2022-07-29T03:41:37;5.90;;;4.10;;
18196;SDS011;9224;52.422;13.024;2022-07-29T03:44:06;5.30;;;4.23;;
18196;SDS011;9224;52.422;13.024;2022-07-29T03:46:33;7.50;;;4.47;;
18196;SDS011;9224;52.422;13.024;2022-07-29T03:49:03;4.73;;;4.20;;
18196;SDS011;9224;52.422;13.024;2022-07-29T03:51:30;6.00;;;4.57;;
18196;SDS011;9224;52.422;13.024;2022-07-29T03:53:56;4.47;;;4.07;;
18196;SDS011;9224;52.422;13.024;2022-07-29T03:56:24;7.90;;;4.97;;
18196;SDS011;9224;52.422;13.024;2022-07-29T03:58:51;8.03;;;4.47;;
18196;SDS011;9224;52.422;13.024;2022-07-29T04:01:18;7.53;;;3.80;;
18196;SDS011;9224;52.422;13.024;2022-07-29T04:03:46;6.40;;;4.20;;
18196;SDS011;9224;52.422;13.024;2022-07-29T04:06:12;5.23;;;4.27;;
18196;SDS011;9224;52.422;13.024;2022-07-29T04:08:39;5.47;;;4.00;;
18196;SDS011;9224;52.422;13.024;2022-07-29T04:11:05;5.37;;;4.13;;
18196;SDS011;9224;52.422;13.024;2022-07-29T04:13:33;6.87;;;4.43;;
18196;SDS011;9224;52.422;13.024;2022-07-29T04:16:00;6.23;;;4.17;;
18196;SDS011;9224;52.422;13.024;2022-07-29T04:18:26;6.87;;;4.00;;
18196;SDS011;9224;52.422;13.024;2022-07-29T04:20:53;6.03;;;3.87;;
18196;SDS011;9224;52.422;13.024;2022-07-29T04:23:19;7.47;;;4.50;;
18196;SDS011;9224;52.422;13.024;2022-07-29T04:25:46;6.03;;;3.97;;
18196;SDS011;9224;52.422;13.024;2022-07-29T04:28:12;6.60;;;4.20;;
18196;SDS011;9224;52.422;13.024;2022-07-29T04:30:40;4.80;;;4.10;;
18196;SDS011;9224;52.422;13.024;2022-07-29T04:33:07;6.20;;;4.33;;
18196;SDS011;9224;52.422;13.024;2022-07-29T04:35:35;4.83;;;3.90;;
18196;SDS011;9224;52.422;13.024;2022-07-29T04:38:02;5.00;;;3.97;;
18196;SDS011;9224;52.422;13.024;2022-07-29T04:40:29;5.10;;;4.27;;
18196;SDS011;9224;52.422;13.024;2022-07-29T04:42:56;4.77;;;3.90;;
18196;SDS011;9224;52.422;13.024;2022-07-29T04:45:22;5.20;;;3.80;;
18196;SDS011;9224;52.422;13.024;2022-07-29T04:47:51;6.17;;;4.17;;
18196;SDS011;9224;52.422;13.024;2022-07-29T04:50:17;6.47;;;3.93;;
18196;SDS011;9224;52.422;13.024;2022-07-29T04:52:44;6.33;;;3.87;;
18196;SDS011;9224;52.422;13.024;2022-07-29T04:55:10;5.40;;;3.70;;
18196;SDS011;9224;52.422;13.024;2022-07-29T04:57:37;4.33;;;3.93;;
18196;SDS011;9224;52.422;13.024;2022-07-29T05:00:04;6.33;;;3.90;;
18196;SDS011;9224;52.422;13.024;2022-07-29T05:02:33;4.53;;;3.93;;
18196;SDS011;9224;52.422;13.024;2022-07-29T05:05:01;4.27;;;3.87;;
18196;SDS011;9224;52.422;13.024;2022-07-29T05:07:28;5.07;;;3.87;;
18196;SDS011;9224;52.422;13.024;2022-07-29T05:09:54;8.80;;;4.07;;
18196;SDS011;9224;52.422;13.024;2022-07-29T05:12:22;4.37;;;3.43;;
18196;SDS011;9224;52.422;13.024;2022-07-29T05:14:48;10.07;;;4.00;;
18196;SDS011;9224;52.422;13.024;2022-07-29T05:17:15;9.20;;;4.10;;
18196;SDS011;9224;52.422;13.024;2022-07-29T05:19:41;9.13;;;4.20;;
18196;SDS011;9224;52.422;13.024;2022-07-29T05:22:09;4.00;;;3.60;;
18196;SDS011;9224;52.422;13.024;2022-07-29T05:24:35;5.17;;;3.50;;
18196;SDS011;9224;52.422;13.024;2022-07-29T05:27:02;4.83;;;3.97;;
18196;SDS011;9224;52.422;13.024;2022-07-29T05:29:29;5.90;;;3.53;;
18196;SDS011;9224;52.422;13.024;2022-07-29T05:31:55;6.93;;;3.70;;
18196;SDS011;9224;52.422;13.024;2022-07-29T05:34:22;5.10;;;3.87;;
18196;SDS011;9224;52.422;13.024;2022-07-29T05:36:50;6.67;;;3.73;;
18196;SDS011;9224;52.422;13.024;2022-07-29T05:39:17;5.47;;;3.40;;
18196;SDS011;9224;52.422;13.024;2022-07-29T05:41:44;5.07;;;3.87;;
18196;SDS011;9224;52.422;13.024;2022-07-29T05:44:11;3.47;;;3.17;;
18196;SDS011;9224;52.422;13.024;2022-07-29T05:46:38;6.03;;;3.50;;
18196;SDS011;9224;52.422;13.024;2022-07-29T05:49:05;5.73;;;3.30;;
18196;SDS011;9224;52.422;13.024;2022-07-29T05:51:32;4.57;;;3.13;;
18196;SDS011;9224;52.422;13.024;2022-07-29T05:53:59;4.43;;;3.33;;
18196;SDS011;9224;52.422;13.024;2022-07-29T05:56:26;4.33;;;3.50;;
18196;SDS011;9224;52.422;13.024;2022-07-29T05:58:53;5.27;;;3.67;;
18196;SDS011;9224;52.422;13.024;2022-07-29T06:01:20;4.07;;;3.20;;
18196;SDS011;9224;52.422;13.024;2022-07-29T06:03:46;3.67;;;3.37;;
18196;SDS011;9224;52.422;13.024;2022-07-29T06:06:13;5.73;;;3.27;;
18196;SDS011;9224;52.422;13.024;2022-07-29T06:08:40;4.50;;;3.20;;
18196;SDS011;9224;52.422;13.024;2022-07-29T06:11:06;6.30;;;3.00;;
18196;SDS011;9224;52.422;13.024;2022-07-29T06:13:34;4.30;;;2.87;;
18196;SDS011;9224;52.422;13.024;2022-07-29T06:16:01;5.33;;;3.63;;
18196;SDS011;9224;52.422;13.024;2022-07-29T06:18:27;4.83;;;3.50;;
18196;SDS011;9224;52.422;13.024;2022-07-29T06:20:54;6.93;;;3.87;;
18196;SDS011;9224;52.422;13.024;2022-07-29T06:23:21;4.60;;;3.30;;
18196;SDS011;9224;52.422;13.024;2022-07-29T06:25:47;3.63;;;3.27;;
18196;SDS011;9224;52.422;13.024;2022-07-29T06:28:14;5.00;;;3.13;;
18196;SDS011;9224;52.422;13.024;2022-07-29T06:30:42;3.77;;;3.20;;
18196;SDS011;9224;52.422;13.024;2022-07-29T06:33:08;4.57;;;3.43;;
18196;SDS011;9224;52.422;13.024;2022-07-29T06:35:35;6.03;;;2.90;;
18196;SDS011;9224;52.422;13.024;2022-07-29T06:38:02;5.50;;;3.20;;
18196;SDS011;9224;52.422;13.024;2022-07-29T06:40:28;6.23;;;3.50;;
18196;SDS011;9224;52.422;13.024;2022-07-29T06:43:12;3.50;;;2.90;;
18196;SDS011;9224;52.422;13.024;2022-07-29T06:45:39;6.57;;;3.30;;
18196;SDS011;9224;52.422;13.024;2022-07-29T06:48:09;8.00;;;3.37;;
18196;SDS011;9224;52.422;13.024;2022-07-29T06:50:35;6.43;;;3.30;;
18196;SDS011;9224;52.422;13.024;2022-07-29T06:53:02;7.17;;;3.40;;
18196;SDS011;9224;52.422;13.024;2022-07-29T06:55:28;11.10;;;3.57;;
18196;SDS011;9224;52.422;13.024;2022-07-29T06:57:55;4.50;;;3.13;;
18196;SDS011;9224;52.422;13.024;2022-07-29T07:00:21;6.17;;;3.57;;
18196;SDS011;9224;52.422;13.024;2022-07-29T07:02:48;4.73;;;3.07;;
18196;SDS011;9224;52.422;13.024;2022-07-29T07:05:16;4.33;;;2.90;;
18196;SDS011;9224;52.422;13.024;2022-07-29T07:07:42;8.17;;;3.70;;
18196;SDS011;9224;52.422;13.024;2022-07-29T07:10:09;3.70;;;3.20;;
18196;SDS011;9224;52.422;13.024;2022-07-29T07:12:35;4.83;;;3.17;;
18196;SDS011;9224;52.422;13.024;2022-07-29T07:15:02;7.83;;;3.13;;
18196;SDS011;9224;52.422;13.024;2022-07-29T07:17:29;5.10;;;3.20;;
18196;SDS011;9224;52.422;13.024;2022-07-29T07:19:55;4.83;;;3.20;;
18196;SDS011;9224;52.422;13.024;2022-07-29T07:22:23;7.17;;;3.43;;
18196;SDS011;9224;52.422;13.024;2022-07-29T07:24:50;7.03;;;3.20;;
18196;SDS011;9224;52.422;13.024;2022-07-29T07:27:16;6.67;;;3.33;;
18196;SDS011;9224;52.422;13.024;2022-07-29T07:29:42;4.03;;;3.40;;
18196;SDS011;9224;52.422;13.024;2022-07-29T07:32:09;4.40;;;3.33;;
18196;SDS011;9224;52.422;13.024;2022-07-29T07:34:38;4.33;;;2.90;;
18196;SDS011;9224;52.422;13.024;2022-07-29T07:37:04;5.57;;;3.27;;
18196;SDS011;9224;52.422;13.024;2022-07-29T07:39:32;8.00;;;3.27;;
18196;SDS011;9224;52.422;13.024;2022-07-29T07:41:59;5.00;;;3.03;;
18196;SDS011;9224;52.422;13.024;2022-07-29T07:44:25;4.93;;;3.13;;
18196;SDS011;9224;52.422;13.024;2022-07-29T07:46:52;4.93;;;3.33;;
18196;SDS011;9224;52.422;13.024;2022-07-29T07:49:18;4.80;;;3.10;;
18196;SDS011;9224;52.422;13.024;2022-07-29T07:51:45;8.27;;;3.30;;
18196;SDS011;9224;52.422;13.024;2022-07-29T07:54:11;4.77;;;3.07;;
18196;SDS011;9224;52.422;13.024;2022-07-29T07:56:39;6.40;;;3.00;;
18196;SDS011;9224;52.422;13.024;2022-07-29T07:59:05;5.57;;;3.10;;
18196;SDS011;9224;52.422;13.024;2022-07-29T08:01:32;5.80;;;3.00;;
18196;SDS011;9224;52.422;13.024;2022-07-29T08:03:58;5.57;;;2.90;;
18196;SDS011;9224;52.422;13.024;2022-07-29T08:06:25;2.77;;;2.40;;
18196;SDS011;9224;52.422;13.024;2022-07-29T08:08:51;3.67;;;3.20;;
18196;SDS011;9224;52.422;13.024;2022-07-29T08:11:18;3.47;;;2.83;;
18196;SDS011;9224;52.422;13.024;2022-07-29T08:13:47;5.63;;;3.17;;
18196;SDS011;9224;52.422;13.024;2022-07-29T08:16:13;6.70;;;3.50;;
18196;SDS011;9224;52.422;13.024;2022-07-29T08:18:41;6.13;;;2.90;;
18196;SDS011;9224;52.422;13.024;2022-07-29T08:21:08;6.57;;;3.17;;
18196;SDS011;9224;52.422;13.024;2022-07-29T08:23:35;4.53;;;2.90;;
18196;SDS011;9224;52.422;13.024;2022-07-29T08:26:04;4.77;;;3.00;;
18196;SDS011;9224;52.422;13.024;2022-07-29T08:28:31;3.40;;;3.10;;
18196;SDS011;9224;52.422;13.024;2022-07-29T08:30:59;3.13;;;2.83;;
18196;SDS011;9224;52.422;13.024;2022-07-29T08:33:25;3.93;;;2.53;;
18196;SDS011;9224;52.422;13.024;2022-07-29T08:39:39;5.30;;;3.03;;
18196;SDS011;9224;52.422;13.024;2022-07-29T08:42:07;4.37;;;2.43;;
18196;SDS011;9224;52.422;13.024;2022-07-29T08:44:34;4.20;;;2.90;;
18196;SDS011;9224;52.422;13.024;2022-07-29T08:47:03;5.17;;;2.80;;
18196;SDS011;9224;52.422;13.024;2022-07-29T08:49:30;6.13;;;3.00;;
18196;SDS011;9224;52.422;13.024;2022-07-29T08:51:57;5.13;;;3.03;;
18196;SDS011;9224;52.422;13.024;2022-07-29T08:54:24;4.03;;;2.47;;
18196;SDS011;9224;52.422;13.024;2022-07-29T08:56:51;6.37;;;3.00;;
18196;SDS011;9224;52.422;13.024;2022-07-29T08:59:19;4.47;;;2.50;;
18196;SDS011;9224;52.422;13.024;2022-07-29T09:01:46;4.27;;;2.40;;
18196;SDS011;9224;52.422;13.024;2022-07-29T09:04:15;5.43;;;2.73;;
18196;SDS011;9224;52.422;13.024;2022-07-29T09:06:43;4.43;;;2.17;;
18196;SDS011;9224;52.422;13.024;2022-07-29T09:09:10;2.27;;;2.17;;
18196;SDS011;9224;52.422;13.024;2022-07-29T09:11:38;5.70;;;2.47;;
18196;SDS011;9224;52.422;13.024;2022-07-29T09:14:05;5.87;;;2.23;;
18196;SDS011;9224;52.422;13.024;2022-07-29T09:16:48;3.80;;;2.73;;
18196;SDS011;9224;52.422;13.024;2022-07-29T09:19:20;2.30;;;2.10;;
18196;SDS011;9224;52.422;13.024;2022-07-29T09:21:48;3.53;;;2.03;;
18196;SDS011;9224;52.422;13.024;2022-07-29T09:24:24;4.87;;;2.43;;
18196;SDS011;9224;52.422;13.024;2022-07-29T09:26:51;4.83;;;2.60;;
18196;SDS011;9224;52.422;13.024;2022-07-29T09:29:18;4.27;;;2.40;;
18196;SDS011;9224;52.422;13.024;2022-07-29T09:31:46;6.40;;;2.27;;
18196;SDS011;9224;52.422;13.024;2022-07-29T09:34:14;6.30;;;2.53;;
18196;SDS011;9224;52.422;13.024;2022-07-29T09:36:44;4.80;;;2.60;;
18196;SDS011;9224;52.422;13.024;2022-07-29T09:39:11;3.17;;;2.40;;
18196;SDS011;9224;52.422;13.024;2022-07-29T09:41:45;5.27;;;2.43;;
18196;SDS011;9224;52.422;13.024;2022-07-29T09:44:13;2.60;;;2.33;;
18196;SDS011;9224;52.422;13.024;2022-07-29T09:46:40;3.83;;;2.50;;
18196;SDS011;9224;52.422;13.024;2022-07-29T09:49:08;2.40;;;2.20;;
18196;SDS011;9224;52.422;13.024;2022-07-29T09:51:34;3.80;;;2.63;;
18196;SDS011;9224;52.422;13.024;2022-07-29T09:54:02;3.00;;;2.23;;
18196;SDS011;9224;52.422;13.024;2022-07-29T09:56:47;7.43;;;2.37;;
18196;SDS011;9224;52.422;13.024;2022-07-29T09:59:14;3.13;;;2.33;;
18196;SDS011;9224;52.422;13.024;2022-07-29T10:01:40;2.77;;;2.23;;
18196;SDS011;9224;52.422;13.024;2022-07-29T10:04:07;3.97;;;2.80;;
18196;SDS011;9224;52.422;13.024;2022-07-29T10:06:33;2.93;;;2.10;;
18196;SDS011;9224;52.422;13.024;2022-07-29T10:09:10;4.37;;;2.50;;
18196;SDS011;9224;52.422;13.024;2022-07-29T10:11:38;2.77;;;2.10;;
18196;SDS011;9224;52.422;13.024;2022-07-29T10:14:05;2.80;;;2.03;;
18196;SDS011;9224;52.422;13.024;2022-07-29T10:16:32;7.43;;;3.03;;
18196;SDS011;9224;52.422;13.024;2022-07-29T10:18:58;7.17;;;2.73;;
18196;SDS011;9224;52.422;13.024;2022-07-29T10:21:26;3.87;;;2.43;;
18196;SDS011;9224;52.422;13.024;2022-07-29T10:23:52;5.17;;;2.40;;
18196;SDS011;9224;52.422;13.024;2022-07-29T10:26:20;3.73;;;2.23;;
18196;SDS011;9224;52.422;13.024;2022-07-29T10:28:47;2.63;;;2.43;;
18196;SDS011;9224;52.422;13.024;2022-07-29T10:31:15;3.53;;;2.20;;
18196;SDS011;9224;52.422;13.024;2022-07-29T10:33:48;2.87;;;2.30;;
18196;SDS011;9224;52.422;13.024;2022-07-29T10:36:21;3.13;;;2.47;;
18196;SDS011;9224;52.422;13.024;2022-07-29T10:38:55;4.40;;;2.20;;
18196;SDS011;9224;52.422;13.024;2022-07-29T10:41:39;5.33;;;2.40;;
18196;SDS011;9224;52.422;13.024;2022-07-29T10:44:14;3.03;;;2.53;;
18196;SDS011;9224;52.422;13.024;2022-07-29T10:46:42;3.33;;;2.30;;
18196;SDS011;9224;52.422;13.024;2022-07-29T10:49:12;3.20;;;2.37;;
18196;SDS011;9224;52.422;13.024;2022-07-29T10:54:36;5.17;;;2.57;;
18196;SDS011;9224;52.422;13.024;2022-07-29T10:57:12;2.50;;;2.30;;
18196;SDS011;9224;52.422;13.024;2022-07-29T10:59:42;3.67;;;2.53;;
18196;SDS011;9224;52.422;13.024;2022-07-29T11:05:09;6.17;;;2.50;;
18196;SDS011;9224;52.422;13.024;2022-07-29T11:07:38;6.07;;;2.53;;
18196;SDS011;9224;52.422;13.024;2022-07-29T11:10:21;3.50;;;2.60;;
18196;SDS011;9224;52.422;13.024;2022-07-29T11:12:50;2.67;;;2.30;;
18196;SDS011;9224;52.422;13.024;2022-07-29T11:15:17;2.93;;;2.70;;
18196;SDS011;9224;52.422;13.024;2022-07-29T11:18:04;2.83;;;2.63;;
18196;SDS011;9224;52.422;13.024;2022-07-29T11:20:32;2.90;;;2.47;;
18196;SDS011;9224;52.422;13.024;2022-07-29T11:23:00;4.27;;;2.20;;
18196;SDS011;9224;52.422;13.024;2022-07-29T11:25:27;3.40;;;2.33;;
18196;SDS011;9224;52.422;13.024;2022-07-29T11:28:08;5.27;;;2.50;;
18196;SDS011;9224;52.422;13.024;2022-07-29T11:30:49;2.83;;;2.50;;
18196;SDS011;9224;52.422;13.024;2022-07-29T11:33:29;3.60;;;2.77;;
18196;SDS011;9224;52.422;13.024;2022-07-29T11:36:08;2.67;;;2.27;;
18196;SDS011;9224;52.422;13.024;2022-07-29T11:38:36;4.47;;;2.80;;
18196;SDS011;9224;52.422;13.024;2022-07-29T11:44:02;2.83;;;2.43;;
18196;SDS011;9224;52.422;13.024;2022-07-29T11:46:44;3.30;;;2.53;;
18196;SDS011;9224;52.422;13.024;2022-07-29T11:49:14;6.10;;;2.50;;
18196;SDS011;9224;52.422;13.024;2022-07-29T11:51:49;3.43;;;2.90;;
18196;SDS011;9224;52.422;13.024;2022-07-29T11:54:17;4.80;;;3.07;;
18196;SDS011;9224;52.422;13.024;2022-07-29T11:56:49;3.07;;;2.77;;
18196;SDS011;9224;52.422;13.024;2022-07-29T11:59:17;4.10;;;2.60;;
18196;SDS011;9224;52.422;13.024;2022-07-29T12:01:52;4.97;;;2.80;;
18196;SDS011;9224;52.422;13.024;2022-07-29T12:04:19;4.27;;;2.87;;
18196;SDS011;9224;52.422;13.024;2022-07-29T12:06:48;5.93;;;2.80;;
18196;SDS011;9224;52.422;13.024;2022-07-29T12:09:15;3.10;;;2.73;;
18196;SDS011;9224;52.422;13.024;2022-07-29T12:11:42;3.53;;;3.00;;
18196;SDS011;9224;52.422;13.024;2022-07-29T12:14:09;5.50;;;3.10;;
18196;SDS011;9224;52.422;13.024;2022-07-29T12:16:37;3.93;;;3.10;;
18196;SDS011;9224;52.422;13.024;2022-07-29T12:19:04;7.73;;;3.20;;
18196;SDS011;9224;52.422;13.024;2022-07-29T12:21:42;3.40;;;2.90;;
18196;SDS011;9224;52.422;13.024;2022-07-29T12:24:10;3.63;;;3.33;;
18196;SDS011;9224;52.422;13.024;2022-07-29T12:26:36;3.37;;;3.10;;
18196;SDS011;9224;52.422;13.024;2022-07-29T12:29:15;3.73;;;2.77;;
18196;SDS011;9224;52.422;13.024;2022-07-29T12:31:43;3.30;;;3.00;;
18196;SDS011;9224;52.422;13.024;2022-07-29T12:34:11;6.30;;;3.33;;
18196;SDS011;9224;52.422;13.024;2022-07-29T12:36:38;4.77;;;3.00;;
18196;SDS011;9224;52.422;13.024;2022-07-29T12:39:05;3.80;;;3.40;;
18196;SDS011;9224;52.422;13.024;2022-07-29T12:41:32;4.50;;;3.40;;
18196;SDS011;9224;52.422;13.024;2022-07-29T12:43:58;4.57;;;3.03;;
18196;SDS011;9224;52.422;13.024;2022-07-29T12:46:24;7.23;;;3.00;;
18196;SDS011;9224;52.422;13.024;2022-07-29T12:48:53;4.77;;;2.93;;
18196;SDS011;9224;52.422;13.024;2022-07-29T12:51:27;4.17;;;2.90;;
18196;SDS011;9224;52.422;13.024;2022-07-29T12:54:01;5.87;;;3.00;;
18196;SDS011;9224;52.422;13.024;2022-07-29T12:56:29;3.70;;;3.40;;
18196;SDS011;9224;52.422;13.024;2022-07-29T12:58:56;5.03;;;2.83;;
18196;SDS011;9224;52.422;13.024;2022-07-29T13:01:22;3.80;;;3.27;;
18196;SDS011;9224;52.422;13.024;2022-07-29T13:03:51;4.60;;;3.20;;
18196;SDS011;9224;52.422;13.024;2022-07-29T13:06:37;3.23;;;3.03;;
18196;SDS011;9224;52.422;13.024;2022-07-29T13:09:07;3.77;;;3.20;;
18196;SDS011;9224;52.422;13.024;2022-07-29T13:11:35;5.33;;;2.93;;
18196;SDS011;9224;52.422;13.024;2022-07-29T13:14:03;5.40;;;3.10;;
18196;SDS011;9224;52.422;13.024;2022-07-29T13:16:30;3.40;;;3.10;;
18196;SDS011;9224;52.422;13.024;2022-07-29T13:19:05;4.03;;;3.00;;
18196;SDS011;9224;52.422;13.024;2022-07-29T13:21:33;4.67;;;3.30;;
18196;SDS011;9224;52.422;13.024;2022-07-29T13:23:59;3.93;;;2.90;;
18196;SDS011;9224;52.422;13.024;2022-07-29T13:26:26;7.67;;;3.67;;
18196;SDS011;9224;52.422;13.024;2022-07-29T13:28:53;4.57;;;3.07;;
18196;SDS011;9224;52.422;13.024;2022-07-29T13:31:19;3.40;;;3.10;;
18196;SDS011;9224;52.422;13.024;2022-07-29T13:33:47;3.40;;;3.10;;
18196;SDS011;9224;52.422;13.024;2022-07-29T13:36:15;3.80;;;3.40;;
18196;SDS011;9224;52.422;13.024;2022-07-29T13:38:41;4.17;;;3.40;;
18196;SDS011;9224;52.422;13.024;2022-07-29T13:41:08;5.83;;;3.67;;
18196;SDS011;9224;52.422;13.024;2022-07-29T13:43:34;5.73;;;3.50;;
18196;SDS011;9224;52.422;13.024;2022-07-29T13:46:00;3.73;;;2.80;;
18196;SDS011;9224;52.422;13.024;2022-07-29T13:48:27;3.87;;;3.43;;
18196;SDS011;9224;52.422;13.024;2022-07-29T13:50:53;6.13;;;3.00;;
18196;SDS011;9224;52.422;13.024;2022-07-29T13:53:21;5.47;;;3.50;;
18196;SDS011;9224;52.422;13.024;2022-07-29T13:55:48;5.87;;;3.20;;
18196;SDS011;9224;52.422;13.024;2022-07-29T13:58:16;3.63;;;3.10;;
18196;SDS011;9224;52.422;13.024;2022-07-29T14:00:43;4.97;;;3.30;;
18196;SDS011;9224;52.422;13.024;2022-07-29T14:03:10;3.83;;;3.50;;
18196;SDS011;9224;52.422;13.024;2022-07-29T14:05:37;4.53;;;3.43;;
18196;SDS011;9224;52.422;13.024;2022-07-29T14:08:03;7.70;;;3.80;;
18196;SDS011;9224;52.422;13.024;2022-07-29T14:10:31;3.50;;;3.20;;
18196;SDS011;9224;52.422;13.024;2022-07-29T14:12:58;5.53;;;3.30;;
18196;SDS011;9224;52.422;13.024;2022-07-29T14:15:24;5.63;;;3.30;;
18196;SDS011;9224;52.422;13.024;2022-07-29T14:17:51;5.50;;;3.13;;
18196;SDS011;9224;52.422;13.024;2022-07-29T14:20:17;4.83;;;3.53;;
18196;SDS011;9224;52.422;13.024;2022-07-29T14:22:44;3.87;;;2.90;;
18196;SDS011;9224;52.422;13.024;2022-07-29T14:25:11;4.70;;;3.40;;
18196;SDS011;9224;52.422;13.024;2022-07-29T14:27:39;4.63;;;3.50;;
18196;SDS011;9224;52.422;13.024;2022-07-29T14:30:06;4.10;;;3.27;;
18196;SDS011;9224;52.422;13.024;2022-07-29T14:32:33;3.93;;;3.30;;
18196;SDS011;9224;52.422;13.024;2022-07-29T14:35:00;4.70;;;3.40;;
18196;SDS011;9224;52.422;13.024;2022-07-29T14:37:26;3.90;;;2.90;;
18196;SDS011;9224;52.422;13.024;2022-07-29T14:39:53;5.30;;;3.00;;
18196;SDS011;9224;52.422;13.024;2022-07-29T14:42:24;3.03;;;2.83;;
18196;SDS011;9224;52.422;13.024;2022-07-29T14:44:52;4.83;;;2.87;;
18196;SDS011;9224;52.422;13.024;2022-07-29T14:47:18;3.50;;;3.20;;
18196;SDS011;9224;52.422;13.024;2022-07-29T14:49:46;4.07;;;3.37;;
18196;SDS011;9224;52.422;13.024;2022-07-29T14:52:13;5.87;;;3.30;;
18196;SDS011;9224;52.422;13.024;2022-07-29T14:54:39;4.50;;;3.30;;
18196;SDS011;9224;52.422;13.024;2022-07-29T14:57:06;6.07;;;3.20;;
18196;SDS011;9224;52.422;13.024;2022-07-29T14:59:33;4.57;;;2.90;;
18196;SDS011;9224;52.422;13.024;2022-07-29T15:02:01;6.40;;;2.93;;
18196;SDS011;9224;52.422;13.024;2022-07-29T15:04:27;4.47;;;3.27;;
18196;SDS011;9224;52.422;13.024;2022-07-29T15:06:54;5.50;;;3.27;;
18196;SDS011;9224;52.422;13.024;2022-07-29T15:09:20;4.93;;;3.30;;